Nearby METAR Reports

 

KSJC - San Jose, California, USA
Distance from station: NE 14km
Updated: 23/09/2019 11:53
Clear
Clear
 Wind from calm
Wind: Calm
Temperature: 16°C
Dew Point: 13°C
Humidity: 83%
Barometer: 1012.9 hPa
Clouds: Clear
Visibility: 16 km
2019/09/23 10:53 KSJC 231053Z AUTO 00000KT 10SM CLR 16/13 A2991 RMK AO2 SLP128 T01560133 $
KNUQ - Moffett Nas/Mtn, California, USA
Distance from station: N 14km
Updated: 23/09/2019 11:56

 
Barometer: 1013.2 hPa
2019/09/23 10:56 KNUQ 231056Z A2992 RMK AO2 SLP136 PWINO $
 
KPAO - Palo Alto, California, USA
Distance from station: NNW 23km
Updated: 23/09/2019 04:47
NOT Current
Few Clouds
Few Clouds
 Wind from NNW
Wind: NNW 19 km/h
Temperature: 19°C
Dew Point: 13°C
Humidity: 68%
Barometer: 1013.5 hPa
Clouds: Few Clouds
Visibility: 16 km
Cloud details: Few Clouds 3658 m
2019/09/23 03:47 KPAO 230347Z 33010KT 10SM FEW120 19/13 A2993 RMK LAST
KRHV - San Jose/Reid, California, USA
Distance from station: ENE 19km
Updated: 23/09/2019 05:50
NOT Current
Clear
Clear
 Wind from WNW
Wind: WNW 7 km/h
Temperature: 18°C
Dew Point: 13°C
Humidity: 73%
Barometer: 1014.2 hPa
Clouds: Clear
Visibility: 16 km
2019/09/23 04:50 KRHV 230450Z 29004KT 10SM SKC 18/13 A2995 RMK LAST
 
KOAK - Oakland, California, USA
Distance from station: NNW 50km
Updated: 23/09/2019 11:53
Overcast
Overcast
 Wind from calm
Wind: Calm
Temperature: 16°C
Dew Point: 14°C
Humidity: 88%
Barometer: 1013.2 hPa
Clouds: Overcast
Visibility: 16 km
Cloud details: Overcast 152 m
2019/09/23 10:53 KOAK 231053Z 00000KT 10SM OVC005 16/14 A2992 RMK AO2 SLP130 T01610144
KSQL - San Carlos Airpo, California, USA
Distance from station: NW 34km
Updated: 23/09/2019 04:49
NOT Current
Few Clouds
Few Clouds
 Wind from WSW
Wind: WSW 13 km/h
Temperature: 18°C
Dew Point: 13°C
Humidity: 73%
Barometer: 1013.9 hPa
Clouds: Few Clouds
Visibility: 16 km
Cloud details: Few Clouds 3658 m
2019/09/23 03:49 KSQL 230349Z 24007KT 10SM FEW120 18/13 A2994 RMK LAST
 
KSFO - San Francisco, California, USA
Distance from station: NW 49km
Updated: 23/09/2019 11:56
Few Clouds
Few Clouds
 Wind from WNW
Wind: WNW 17 km/h
Temperature: 15°C
Dew Point: 13°C
Humidity: 88%
Barometer: 1012.9 hPa
Clouds: Few Clouds
Visibility: 16 km
Cloud details: Few Clouds 91 m
Few Clouds 244 m
2019/09/23 10:56 KSFO 231056Z 29009KT 10SM FEW003 FEW008 15/13 A2991 RMK AO2 SLP129 T01500133
KE16 - San Martin, California, USA
Distance from station: ESE 43km
Updated: 23/09/2019 12:15
Clear
Clear
 Wind from SE
Wind: SE 6 km/h
Temperature: 13°C
Dew Point: 11°C
Humidity: 88%
Barometer: 1013.9 hPa
Clouds: Clear
Visibility: 16 km
2019/09/23 11:15 KE16 231115Z AUTO 14003KT 10SM CLR 13/11 A2994 RMK AO2 PWINO PNO
 
KWVI - Watsonville, California, USA
Distance from station: SSE 44km
Updated: 23/09/2019 11:53
Overcast
Overcast
 Wind from calm
Wind: Calm
Temperature: 13°C
Dew Point: 12°C
Humidity: 94%
Barometer: 1013.5 hPa
Clouds: Overcast
Visibility: 16 km
Cloud details: Overcast 61 m
2019/09/23 10:53 KWVI 231053Z AUTO 00000KT 10SM OVC002 13/12 A2993 RMK AO2 SLP135 T01330117 $
KHAF - Half Moon Bay, California, USA
Distance from station: WNW 50km
Updated: 23/09/2019 12:20
Fog, Overcast
Fog, Overcast
 Wind from calm
Wind: Calm
Temperature: 14°C
Dew Point: 13°C
Humidity: 94%
Barometer: 1013.9 hPa
Summary: Fog
Clouds: Overcast
Visibility: 0.8 km
Cloud details: Overcast 61 m
2019/09/23 11:20 KHAF 231120Z AUTO 00000KT 1/2SM FG OVC002 14/13 A2994 RMK AO2
 
KHWD - Hayward, California, USA
Distance from station: N 44km
Updated: 23/09/2019 11:54
Overcast
Overcast
 Wind from calm
Wind: Calm
Temperature: 16°C
Dew Point: 15°C
Humidity: 94%
Barometer: 1012.9 hPa
Clouds: Overcast
Visibility: 16 km
Cloud details: Overcast 213 m
2019/09/23 10:54 KHWD 231054Z AUTO 00000KT 10SM OVC007 16/15 A2991 RMK AO2 SLP137 T01610150
KLVK - Livermore, California, USA
Distance from station: NNE 51km
Updated: 23/09/2019 11:53
Clear
Clear
 Wind from ESE
Wind: ESE 6 km/h
Temperature: 14°C
Dew Point: 13°C
Humidity: 94%
Barometer: 1012.9 hPa
Clouds: Clear
Visibility: 16 km
2019/09/23 10:53 KLVK 231053Z AUTO 11003KT 10SM CLR 14/13 A2991 RMK AO2 SLP126 T01440133